Time;durP1;ratioP1;P1;durP2;ratioP2;P2;SDS_P1;SDS_P2;PMS_P1;PMS_P2;Temp;Humidity;BMP_temperature;BMP_pressure;BME280_temperature;BME280_humidity;BME280_pressure;Samples;Min_cycle;Max_cycle;Signal;HPM_P1;HPM_P2
2022/10/13 02:47:27;;;;;;;18.60;8.02;;;12.00;99.90;;;;;;5352477;23;88700;-81
2022/10/13 02:49:52;;;;;;;22.35;8.32;;;12.00;99.90;;;;;;4895763;28;88404;-82
2022/10/13 02:52:18;;;;;;;26.25;7.85;;;12.00;99.90;;;;;;4912886;28;87973;-82
2022/10/13 02:54:44;;;;;;;17.80;8.23;;;11.90;99.90;;;;;;4902180;28;86579;-83
2022/10/13 02:57:09;;;;;;;15.48;7.43;;;11.80;99.90;;;;;;4896892;28;86895;-82
2022/10/13 02:59:35;;;;;;;18.55;7.03;;;11.80;99.90;;;;;;4896838;28;87758;-82
2022/10/13 03:02:01;;;;;;;14.05;7.65;;;11.80;99.90;;;;;;4915006;28;88244;-81
2022/10/13 03:04:26;;;;;;;17.85;7.07;;;11.80;99.90;;;;;;4898639;28;88164;-82
2022/10/13 03:06:52;;;;;;;18.00;6.93;;;11.80;99.90;;;;;;4900516;28;86065;-80
2022/10/13 03:09:17;;;;;;;14.40;6.45;;;11.80;99.90;;;;;;4891221;28;87049;-80
2022/10/13 03:11:43;;;;;;;20.90;8.20;;;11.80;99.90;;;;;;4901225;28;87005;-82
2022/10/13 03:14:09;;;;;;;16.58;7.45;;;11.70;99.90;;;;;;4886884;28;87988;-81
2022/10/13 03:16:34;;;;;;;19.00;7.57;;;11.80;99.90;;;;;;4900763;28;86341;-80
2022/10/13 03:19:00;;;;;;;16.90;7.43;;;11.80;99.90;;;;;;4901454;28;87233;-81
2022/10/13 03:21:26;;;;;;;15.15;7.43;;;11.80;99.90;;;;;;4899657;28;87056;-82
2022/10/13 03:23:51;;;;;;;21.50;7.32;;;11.80;99.90;;;;;;4908133;28;86806;-81
2022/10/13 03:26:17;;;;;;;14.30;6.60;;;11.80;99.90;;;;;;4890644;28;86397;-81
2022/10/13 03:28:46;;;;;;;15.65;7.03;;;11.80;99.90;;;;;;4895987;28;87343;-81
2022/10/13 03:31:12;;;;;;;16.05;7.25;;;11.80;99.90;;;;;;4900364;28;86278;-80
2022/10/13 03:33:39;;;;;;;15.85;7.15;;;11.70;99.90;;;;;;4896761;28;86984;-79
2022/10/13 03:36:06;;;;;;;13.93;6.32;;;11.60;99.90;;;;;;4911409;28;86815;-81
2022/10/13 03:38:33;;;;;;;18.77;6.88;;;11.60;99.90;;;;;;4898667;28;87982;-80
2022/10/13 03:41:14;;;;;;;17.02;7.05;;;11.50;99.90;;;;;;4891727;28;87811;-80
2022/10/13 03:43:41;;;;;;;14.30;6.75;;;11.60;99.90;;;;;;4890898;28;87336;-84
2022/10/13 03:46:09;;;;;;;19.35;6.60;;;11.50;99.90;;;;;;4901776;28;86462;-80
2022/10/13 03:48:36;;;;;;;17.65;7.22;;;11.50;99.90;;;;;;4902767;28;86912;-81
2022/10/13 03:51:10;;;;;;;18.52;8.45;;;11.50;99.90;;;;;;4897428;28;86676;-80
2022/10/13 03:53:36;;;;;;;17.20;6.88;;;11.40;99.90;;;;;;4887350;28;86339;-81
2022/10/13 03:56:03;;;;;;;15.15;6.85;;;11.40;99.90;;;;;;4897186;28;85549;-81
2022/10/13 03:58:29;;;;;;;16.35;7.10;;;11.40;99.90;;;;;;4895220;28;86806;-82
2022/10/13 04:00:56;;;;;;;17.52;7.50;;;11.40;99.90;;;;;;4894239;28;88119;-81
2022/10/13 04:03:23;;;;;;;16.75;7.13;;;11.40;99.90;;;;;;4893514;28;87237;-80
2022/10/13 04:05:49;;;;;;;15.00;7.50;;;11.30;99.90;;;;;;4889891;28;87482;-79
2022/10/13 04:08:15;;;;;;;17.13;6.75;;;11.40;99.90;;;;;;4890430;28;86479;-81
2022/10/13 04:10:41;;;;;;;18.48;6.93;;;11.40;99.90;;;;;;4892122;28;87088;-82
2022/10/13 04:13:07;;;;;;;18.00;7.15;;;11.50;99.90;;;;;;4897995;28;86361;-79
2022/10/13 04:15:37;;;;;;;13.98;6.38;;;11.50;99.90;;;;;;4901441;28;86710;-80
2022/10/13 04:18:03;;;;;;;17.45;6.85;;;11.50;99.90;;;;;;4898181;28;87281;-81
2022/10/13 04:20:29;;;;;;;18.77;6.75;;;11.50;99.90;;;;;;4895211;28;87630;-79
2022/10/13 04:22:54;;;;;;;16.00;5.95;;;11.50;99.90;;;;;;4889770;28;86282;-81
2022/10/13 04:25:20;;;;;;;15.52;6.60;;;11.40;99.90;;;;;;4888673;28;86912;-79
2022/10/13 04:27:47;;;;;;;14.85;6.32;;;11.50;99.90;;;;;;4888212;28;88192;-80
2022/10/13 04:30:13;;;;;;;17.08;6.70;;;11.40;99.90;;;;;;4889208;28;87976;-82
2022/10/13 04:32:39;;;;;;;17.17;6.90;;;11.40;99.90;;;;;;4901580;28;86969;-82
2022/10/13 04:35:05;;;;;;;15.85;7.10;;;11.30;99.90;;;;;;4898424;28;87045;-82
2022/10/13 04:37:30;;;;;;;15.80;6.82;;;11.20;99.90;;;;;;4897181;28;87023;-82
2022/10/13 04:39:56;;;;;;;14.15;5.25;;;11.20;99.90;;;;;;4891039;28;87483;-81
2022/10/13 04:42:22;;;;;;;13.18;6.78;;;11.20;99.90;;;;;;4893153;28;86899;-82
2022/10/13 04:44:48;;;;;;;16.00;7.18;;;11.10;99.90;;;;;;4891820;28;86181;-81
2022/10/13 04:47:13;;;;;;;17.58;6.53;;;11.10;99.90;;;;;;4895515;28;87008;-83
2022/10/13 04:49:39;;;;;;;16.42;8.15;;;11.00;99.90;;;;;;4898591;28;87238;-83
2022/10/13 04:52:05;;;;;;;19.00;6.43;;;11.10;99.90;;;;;;4895637;28;87827;-82
2022/10/13 04:54:30;;;;;;;13.45;6.68;;;11.10;99.90;;;;;;4898882;28;86316;-82
2022/10/13 04:56:58;;;;;;;13.45;6.55;;;11.10;99.90;;;;;;4899256;28;87821;-83
2022/10/13 04:59:23;;;;;;;17.17;8.27;;;11.10;99.90;;;;;;4895972;28;86989;-80
2022/10/13 05:01:49;;;;;;;23.00;7.05;;;11.00;99.90;;;;;;4894611;28;87916;-81
2022/10/13 05:04:15;;;;;;;17.85;6.85;;;11.00;99.90;;;;;;4895120;28;86371;-81
2022/10/13 05:06:41;;;;;;;13.50;6.40;;;10.90;99.90;;;;;;4899907;28;87473;-81
2022/10/13 05:09:07;;;;;;;19.27;6.38;;;10.90;99.90;;;;;;4901174;28;86424;-81
2022/10/13 05:11:33;;;;;;;14.40;6.97;;;10.90;99.90;;;;;;4902459;28;86917;-82
2022/10/13 05:14:00;;;;;;;25.92;7.35;;;10.90;99.90;;;;;;4895479;28;86296;-82
2022/10/13 05:16:26;;;;;;;18.83;6.70;;;10.80;99.90;;;;;;4897728;28;88080;-84
2022/10/13 05:18:53;;;;;;;17.95;6.85;;;10.70;99.90;;;;;;4900635;28;88117;-83
2022/10/13 05:21:26;;;;;;;16.08;6.93;;;10.70;99.90;;;;;;4891870;28;87391;-81
2022/10/13 05:23:54;;;;;;;18.23;6.97;;;10.70;99.90;;;;;;4898424;28;86658;-82
2022/10/13 05:26:22;;;;;;;14.98;6.20;;;10.70;99.90;;;;;;4897745;28;89500;-81
2022/10/13 05:28:48;;;;;;;15.98;7.05;;;10.80;99.90;;;;;;4888642;28;87833;-82
2022/10/13 05:31:22;;;;;;;13.05;6.40;;;10.80;99.90;;;;;;4895726;28;86407;-81
2022/10/13 05:33:49;;;;;;;14.32;6.30;;;10.90;99.90;;;;;;4895214;28;85505;-81
2022/10/13 05:36:20;;;;;;;19.50;7.00;;;10.80;99.90;;;;;;4890495;28;87253;-81
2022/10/13 05:38:51;;;;;;;17.30;7.25;;;10.80;99.90;;;;;;4899410;28;87128;-81
2022/10/13 05:41:17;;;;;;;16.38;6.88;;;10.80;99.90;;;;;;4898659;28;87117;-81
2022/10/13 05:43:42;;;;;;;26.98;7.78;;;10.80;99.90;;;;;;4893834;28;86622;-81
2022/10/13 05:46:09;;;;;;;22.65;7.78;;;10.70;99.90;;;;;;4896387;28;88442;-83
2022/10/13 05:48:36;;;;;;;19.67;7.57;;;10.70;99.90;;;;;;4892900;28;86898;-83
2022/10/13 05:51:09;;;;;;;15.65;6.68;;;10.80;99.90;;;;;;4899256;28;86339;-80
2022/10/13 05:53:38;;;;;;;19.75;7.28;;;10.90;99.90;;;;;;4888341;28;86498;-81
2022/10/13 05:56:09;;;;;;;17.38;6.95;;;10.90;99.90;;;;;;4894164;28;88926;-82
2022/10/13 05:58:44;;;;;;;14.10;5.82;;;11.10;99.90;;;;;;4899248;28;86190;-81
2022/10/13 06:01:13;;;;;;;13.23;6.15;;;11.10;99.90;;;;;;4895121;28;86707;-82
2022/10/13 06:03:40;;;;;;;15.05;5.43;;;11.20;99.90;;;;;;4887726;28;86928;-82
2022/10/13 06:06:07;;;;;;;20.02;6.55;;;11.30;99.90;;;;;;4900934;28;88631;-82
2022/10/13 06:08:33;;;;;;;16.35;5.82;;;11.50;99.90;;;;;;4895266;28;87245;-81
2022/10/13 06:10:59;;;;;;;15.98;5.95;;;12.00;99.90;;;;;;4899652;28;86799;-82
2022/10/13 06:13:25;;;;;;;17.58;5.32;;;12.60;99.90;;;;;;4892161;28;87651;-82
2022/10/13 06:15:50;;;;;;;14.60;6.10;;;13.20;99.90;;;;;;4891574;28;87068;-82
2022/10/13 06:18:16;;;;;;;15.77;5.70;;;13.60;99.90;;;;;;4904837;28;86671;-83
2022/10/13 06:20:42;;;;;;;15.27;5.65;;;14.00;99.90;;;;;;4898730;28;86448;-83
2022/10/13 06:23:08;;;;;;;18.30;5.90;;;14.60;99.90;;;;;;4901712;28;85733;-82
2022/10/13 06:25:35;;;;;;;14.05;5.18;;;15.20;99.90;;;;;;4904484;28;87498;-82
2022/10/13 06:28:01;;;;;;;16.08;5.32;;;15.80;99.90;;;;;;4905022;28;86862;-81
2022/10/13 06:30:27;;;;;;;15.65;5.97;;;16.20;95.10;;;;;;4904543;28;87917;-81
2022/10/13 06:32:56;;;;;;;20.92;6.88;;;16.40;94.90;;;;;;4900349;28;86558;-83
2022/10/13 06:35:22;;;;;;;13.13;6.38;;;15.80;94.10;;;;;;4891980;28;86720;-82
2022/10/13 06:37:49;;;;;;;16.55;7.07;;;15.70;95.70;;;;;;4898607;28;87067;-82
2022/10/13 06:40:15;;;;;;;18.70;6.13;;;15.70;94.60;;;;;;4904537;28;86863;-84
2022/10/13 06:42:40;;;;;;;23.83;6.45;;;15.60;94.80;;;;;;4904842;28;86662;-83
2022/10/13 06:45:07;;;;;;;14.25;4.97;;;16.00;94.50;;;;;;4904021;28;87319;-83
2022/10/13 06:47:32;;;;;;;19.95;5.03;;;17.20;93.10;;;;;;4903168;28;88807;-82
2022/10/13 06:49:58;;;;;;;11.00;5.07;;;18.30;88.40;;;;;;4903736;28;86614;-83
2022/10/13 06:52:24;;;;;;;14.90;5.45;;;18.50;86.40;;;;;;4904814;28;86710;-83
2022/10/13 06:54:49;;;;;;;14.63;4.65;;;18.60;82.60;;;;;;4902639;28;88728;-83
2022/10/13 06:57:15;;;;;;;11.13;4.22;;;18.90;85.80;;;;;;4895603;28;88520;-83
2022/10/13 06:59:43;;;;;;;8.45;4.03;;;20.30;81.30;;;;;;4903866;28;87295;-81
2022/10/13 07:02:08;;;;;;;9.45;4.03;;;21.20;76.40;;;;;;4898950;28;88136;-81
2022/10/13 07:04:34;;;;;;;10.05;4.95;;;21.40;72.50;;;;;;4897768;28;87695;-81
2022/10/13 07:07:00;;;;;;;11.23;3.92;;;21.00;72.50;;;;;;4891996;28;86613;-80
2022/10/13 07:09:26;;;;;;;11.02;3.58;;;20.40;73.60;;;;;;4901224;28;86149;-81
2022/10/13 07:11:52;;;;;;;11.55;4.05;;;20.10;74.30;;;;;;4903537;28;85560;-80
2022/10/13 07:14:18;;;;;;;8.25;3.28;;;19.70;76.00;;;;;;4894350;28;87199;-81
2022/10/13 07:16:43;;;;;;;14.10;3.47;;;19.90;77.50;;;;;;4901502;28;86236;-81
2022/10/13 07:19:09;;;;;;;14.88;3.70;;;20.40;75.60;;;;;;4903985;28;87618;-80
2022/10/13 07:21:35;;;;;;;12.18;3.28;;;20.60;71.20;;;;;;4903889;28;86735;-81
2022/10/13 07:24:02;;;;;;;15.98;3.92;;;20.80;73.90;;;;;;4904345;28;87232;-80
2022/10/13 07:26:28;;;;;;;12.63;3.67;;;21.00;71.60;;;;;;4907749;28;86767;-81
2022/10/13 07:28:54;;;;;;;12.30;4.68;;;21.40;71.50;;;;;;4902023;28;86545;-83
2022/10/13 07:31:20;;;;;;;11.15;3.42;;;22.40;69.90;;;;;;4904831;28;86792;-81
2022/10/13 07:33:48;;;;;;;15.25;3.70;;;23.10;66.90;;;;;;4903240;28;87728;-85
2022/10/13 07:36:14;;;;;;;9.18;3.80;;;23.60;65.50;;;;;;4899958;28;86976;-83
2022/10/13 07:38:40;;;;;;;14.70;3.22;;;23.50;62.90;;;;;;4898286;28;86501;-83
2022/10/13 07:41:08;;;;;;;9.68;3.38;;;22.70;64.50;;;;;;4905550;28;86489;-82
2022/10/13 07:43:33;;;;;;;8.45;3.60;;;22.90;67.90;;;;;;4902395;28;88222;-82
2022/10/13 07:46:03;;;;;;;16.13;4.20;;;24.20;65.60;;;;;;4905657;28;87079;-83
2022/10/13 07:48:29;;;;;;;16.65;4.43;;;25.70;60.10;;;;;;4903155;28;86886;-84
2022/10/13 07:50:55;;;;;;;13.38;4.32;;;26.60;56.40;;;;;;4905493;28;86291;-83
2022/10/13 07:53:20;;;;;;;15.18;6.07;;;27.90;56.30;;;;;;4902789;28;87016;-84
2022/10/13 07:55:46;;;;;;;14.93;4.53;;;28.50;50.30;;;;;;4905276;28;86988;-83
2022/10/13 07:58:13;;;;;;;16.23;5.03;;;28.80;53.80;;;;;;4899704;28;86951;-84
2022/10/13 08:00:39;;;;;;;9.63;3.95;;;29.70;49.90;;;;;;4905369;28;86227;-83
2022/10/13 08:03:04;;;;;;;10.38;3.17;;;29.30;49.10;;;;;;4901869;28;86792;-84
2022/10/13 08:05:30;;;;;;;11.57;3.13;;;27.90;49.20;;;;;;4894379;28;87344;-84
2022/10/13 08:07:56;;;;;;;7.38;3.13;;;24.90;55.10;;;;;;4900766;28;87290;-83
2022/10/13 08:10:21;;;;;;;9.10;3.33;;;24.00;58.10;;;;;;4891934;28;86519;-84
2022/10/13 08:12:47;;;;;;;6.45;3.17;;;24.10;56.60;;;;;;4905145;28;87630;-83
2022/10/13 08:15:13;;;;;;;6.20;2.80;;;24.90;55.60;;;;;;4904506;28;87494;-83
2022/10/13 08:17:39;;;;;;;11.40;3.17;;;26.50;54.40;;;;;;4905364;28;86817;-84
2022/10/13 08:20:05;;;;;;;7.55;2.75;;;27.50;51.70;;;;;;4895444;28;86950;-84
2022/10/13 08:22:33;;;;;;;9.35;2.60;;;26.90;52.90;;;;;;4901736;28;87765;-85
2022/10/13 08:25:00;;;;;;;8.15;2.80;;;27.50;49.90;;;;;;4904133;28;86791;-83
2022/10/13 08:27:27;;;;;;;5.55;2.38;;;28.70;48.60;;;;;;4904131;28;86416;-84
2022/10/13 08:29:53;;;;;;;5.63;3.00;;;29.70;47.70;;;;;;4905101;28;86926;-84
2022/10/13 08:32:22;;;;;;;8.82;2.95;;;31.20;45.20;;;;;;4895678;28;87695;-84
2022/10/13 08:34:48;;;;;;;5.97;2.78;;;33.00;44.70;;;;;;4892735;28;87948;-84
2022/10/13 08:37:18;;;;;;;8.60;4.85;;;33.70;42.50;;;;;;4894530;28;86689;-84
2022/10/13 08:39:44;;;;;;;9.85;3.53;;;34.30;42.30;;;;;;4895505;28;86230;-84
2022/10/13 08:42:20;;;;;;;6.38;4.30;;;34.70;40.50;;;;;;4892121;28;87256;-87
2022/10/13 08:45:05;;;;;;;8.93;4.47;;;33.80;38.80;;;;;;4904242;28;86973;-84
2022/10/13 08:47:39;;;;;;;8.35;4.28;;;32.30;42.90;;;;;;4894310;28;87582;-85
2022/10/13 08:50:18;;;;;;;8.32;3.13;;;31.10;43.80;;;;;;4904377;28;86135;-85
2022/10/13 08:52:53;;;;;;;8.20;3.30;;;30.70;43.80;;;;;;4904250;28;86821;-84
2022/10/13 08:55:36;;;;;;;8.60;3.53;;;30.00;44.60;;;;;;4900631;28;86570;-84
2022/10/13 08:58:14;;;;;;;14.07;4.43;;;29.50;46.10;;;;;;4904795;28;88051;-84
2022/10/13 09:00:41;;;;;;;9.93;3.90;;;29.10;46.40;;;;;;4895887;28;86990;-83
2022/10/13 09:03:25;;;;;;;6.30;2.58;;;29.10;45.80;;;;;;4904342;28;86792;-85
2022/10/13 09:06:12;;;;;;;7.38;2.47;;;29.70;46.30;;;;;;4896190;28;87402;-83
2022/10/13 09:08:48;;;;;;;5.70;3.28;;;30.10;44.40;;;;;;4899058;28;86798;-83
2022/10/13 09:11:14;;;;;;;7.82;2.95;;;30.70;45.10;;;;;;4898983;28;86280;-84
2022/10/13 09:13:40;;;;;;;4.75;2.78;;;31.00;43.40;;;;;;4904397;28;88206;-84
2022/10/13 09:16:06;;;;;;;8.90;2.88;;;30.10;43.50;;;;;;4902505;28;86992;-85
2022/10/13 09:18:32;;;;;;;7.88;2.83;;;28.50;45.90;;;;;;4898381;28;86315;-84
2022/10/13 09:21:10;;;;;;;6.65;2.83;;;26.70;48.50;;;;;;4902742;28;87620;-83
2022/10/13 09:23:36;;;;;;;7.82;3.85;;;25.60;51.20;;;;;;4896709;28;89571;-83
2022/10/13 09:26:08;;;;;;;9.70;3.22;;;26.50;49.10;;;;;;4902768;28;87262;-85
2022/10/13 09:28:34;;;;;;;5.55;3.13;;;26.30;49.60;;;;;;4898585;28;87050;-86
2022/10/13 09:31:12;;;;;;;9.15;3.10;;;26.70;48.40;;;;;;4904032;28;86299;-83
2022/10/13 09:33:38;;;;;;;5.22;2.95;;;26.30;48.60;;;;;;4894758;28;88441;-84
2022/10/13 09:36:05;;;;;;;7.93;3.17;;;26.00;50.30;;;;;;4900327;28;86897;-84
2022/10/13 09:38:31;;;;;;;8.20;4.32;;;25.30;51.40;;;;;;4902868;28;86335;-83
2022/10/13 09:41:03;;;;;;;10.70;4.45;;;24.40;52.80;;;;;;4903312;28;86389;-83
2022/10/13 09:43:32;;;;;;;10.02;3.92;;;23.50;54.70;;;;;;4901497;28;87759;-83
2022/10/13 09:45:58;;;;;;;;;;;22.80;57.70;;;;;;4907149;28;86974;-85
2022/10/13 09:48:31;;;;;;;10.18;5.40;;;22.90;58.50;;;;;;4907850;28;87708;-83
2022/10/13 09:50:57;;;;;;;8.95;5.10;;;22.70;59.80;;;;;;4905720;28;86690;-82
2022/10/13 09:53:39;;;;;;;11.52;5.40;;;23.40;58.40;;;;;;4902866;28;87273;-83
2022/10/13 09:56:26;;;;;;;11.32;4.93;;;23.70;57.00;;;;;;4896402;28;87395;-82
2022/10/13 09:59:03;;;;;;;8.13;4.78;;;23.30;57.60;;;;;;4900615;28;86376;-82
2022/10/13 10:01:33;;;;;;;10.27;5.07;;;23.50;57.30;;;;;;4907207;28;86630;-82
2022/10/13 10:04:05;;;;;;;10.75;5.68;;;24.30;56.10;;;;;;4895448;28;88115;-83
2022/10/13 10:06:31;;;;;;;12.30;5.93;;;25.00;54.00;;;;;;4897717;28;86465;-82
2022/10/13 10:08:56;;;;;;;9.65;4.30;;;24.40;55.30;;;;;;4909132;28;86322;-82
2022/10/13 10:11:32;;;;;;;10.68;5.20;;;24.80;55.40;;;;;;4906136;28;86870;-82
2022/10/13 10:14:11;;;;;;;8.40;4.53;;;26.50;50.70;;;;;;4899235;28;87795;-82
2022/10/13 10:16:45;;;;;;;9.52;4.28;;;25.80;52.90;;;;;;4897872;28;88636;-85
2022/10/13 10:19:27;;;;;;;12.82;4.90;;;27.50;50.50;;;;;;4890798;28;86816;-84
2022/10/13 10:22:02;;;;;;;13.27;5.57;;;28.10;48.10;;;;;;4897738;28;86685;-84
2022/10/13 10:24:45;;;;;;;9.13;4.85;;;27.20;47.80;;;;;;4892688;28;87489;-85
2022/10/13 10:27:15;;;;;;;18.25;6.72;;;24.70;53.20;;;;;;4894187;28;87048;-85
2022/10/13 10:30:00;;;;;;;12.82;6.47;;;23.70;55.90;;;;;;4901516;28;86992;-83
2022/10/13 10:32:32;;;;;;;10.30;5.10;;;22.30;59.10;;;;;;4895041;28;86098;-85
2022/10/13 10:35:08;;;;;;;10.73;5.57;;;21.40;62.70;;;;;;4894767;28;87472;-83
2022/10/13 10:37:54;;;;;;;12.45;4.85;;;21.50;63.00;;;;;;4896438;28;90360;-83
2022/10/13 10:40:25;;;;;;;11.15;4.80;;;22.20;61.30;;;;;;4896033;28;87742;-83
2022/10/13 10:42:57;;;;;;;10.48;5.00;;;21.90;61.40;;;;;;4890459;28;87000;-83
2022/10/13 10:45:32;;;;;;;13.32;4.88;;;22.10;60.00;;;;;;4891270;28;87757;-83
2022/10/13 10:48:14;;;;;;;10.07;4.53;;;21.50;62.60;;;;;;4898328;28;86487;-83
2022/10/13 10:50:40;;;;;;;9.25;3.65;;;21.10;64.10;;;;;;4894680;28;86930;-82
2022/10/13 10:53:30;;;;;;;12.80;4.22;;;21.30;64.40;;;;;;4898030;28;87064;-83
2022/10/13 10:56:35;;;;;;;10.45;4.07;;;21.00;64.50;;;;;;4903048;28;86602;-83
2022/10/13 10:59:22;;;;;;;10.82;4.85;;;20.90;66.80;;;;;;4906565;28;86933;-83
2022/10/13 11:02:05;;;;;;;12.75;4.82;;;21.00;66.40;;;;;;4896835;28;86493;-82
2022/10/13 11:04:48;;;;;;;11.95;5.13;;;21.00;65.70;;;;;;4899743;28;87298;-83
2022/10/13 11:07:23;;;;;;;10.38;4.75;;;20.40;66.50;;;;;;4898384;28;87461;-83
2022/10/13 11:09:51;;;;;;;11.65;4.78;;;20.50;67.20;;;;;;4898729;28;87984;-83
2022/10/13 11:12:20;;;;;;;11.77;5.20;;;21.00;65.60;;;;;;4897513;28;86392;-83
2022/10/13 11:15:07;;;;;;;14.82;4.72;;;21.30;64.70;;;;;;4895725;28;86238;-82
2022/10/13 11:17:40;;;;;;;11.40;5.47;;;21.40;64.80;;;;;;4903385;28;86616;-81
2022/10/13 11:20:21;;;;;;;15.80;4.15;;;21.50;63.80;;;;;;4905166;28;86908;-82
2022/10/13 11:22:58;;;;;;;14.63;4.75;;;21.60;63.60;;;;;;4905701;28;86366;-83
2022/10/13 11:25:41;;;;;;;11.85;4.43;;;21.40;63.80;;;;;;4900927;28;86153;-81
2022/10/13 11:28:39;;;;;;;13.68;4.80;;;21.00;64.50;;;;;;4892516;28;86816;-81
2022/10/13 11:31:14;;;;;;;11.32;5.07;;;21.10;64.50;;;;;;4896196;28;86525;-82
2022/10/13 11:33:39;;;;;;;15.77;4.60;;;21.30;65.20;;;;;;4902141;28;87235;-84
2022/10/13 11:36:27;;;;;;;14.32;4.80;;;21.40;64.30;;;;;;4897997;28;86485;-82
2022/10/13 11:39:00;;;;;;;13.13;5.00;;;21.40;63.80;;;;;;4896576;28;87271;-83
2022/10/13 11:41:35;;;;;;;19.00;5.28;;;20.90;64.70;;;;;;4889760;28;87108;-81
2022/10/13 11:44:13;;;;;;;19.30;6.60;;;19.90;68.00;;;;;;4899960;28;86971;-80
2022/10/13 11:46:59;;;;;;;10.65;4.20;;;19.60;69.70;;;;;;4905786;28;86784;-82
2022/10/13 11:49:43;;;;;;;13.75;5.47;;;19.90;69.80;;;;;;4905484;28;87702;-84
2022/10/13 11:52:28;;;;;;;11.55;5.15;;;20.00;70.60;;;;;;4905507;28;86228;-84
2022/10/13 11:55:12;;;;;;;13.73;4.72;;;20.10;68.40;;;;;;4906066;28;86326;-84
2022/10/13 11:57:37;;;;;;;15.35;4.78;;;19.70;68.60;;;;;;4906167;28;86997;-83
2022/10/13 12:00:04;;;;;;;12.82;4.75;;;20.30;67.20;;;;;;4912308;28;88036;-84
2022/10/13 12:02:29;;;;;;;10.93;4.47;;;20.40;66.20;;;;;;4905965;28;87161;-83
2022/10/13 12:05:05;;;;;;;12.02;5.72;;;20.00;68.00;;;;;;4904886;28;87158;-81
2022/10/13 12:07:38;;;;;;;13.27;3.67;;;19.90;67.90;;;;;;4912256;28;86933;-83
2022/10/13 12:10:13;;;;;;;7.60;3.58;;;19.90;68.10;;;;;;4905979;28;86769;-83
2022/10/13 12:12:48;;;;;;;12.60;4.45;;;20.40;66.80;;;;;;4907961;28;86930;-83
2022/10/13 12:15:34;;;;;;;12.43;3.83;;;20.60;66.80;;;;;;4904485;28;86523;-84
2022/10/13 12:18:00;;;;;;;10.98;3.53;;;20.50;66.50;;;;;;4909902;28;86882;-84
2022/10/13 12:20:29;;;;;;;11.07;4.05;;;20.80;65.00;;;;;;4904000;28;87049;-83
2022/10/13 12:22:55;;;;;;;7.28;3.65;;;20.80;66.70;;;;;;4909388;28;86709;-83
2022/10/13 12:25:24;;;;;;;11.60;3.72;;;20.70;66.10;;;;;;4908766;28;87929;-83
2022/10/13 12:27:57;;;;;;;10.68;4.35;;;21.00;65.90;;;;;;4900205;28;86909;-83
2022/10/13 12:30:27;;;;;;;11.95;4.07;;;21.20;66.20;;;;;;4904742;28;87297;-84
2022/10/13 12:32:55;;;;;;;10.85;3.65;;;21.40;65.10;;;;;;4907372;28;87614;-83
2022/10/13 12:35:30;;;;;;;9.20;3.97;;;21.60;65.30;;;;;;4910262;28;86911;-86
2022/10/13 12:38:00;;;;;;;11.10;4.00;;;21.60;63.70;;;;;;4907020;28;86959;-85
2022/10/13 12:40:26;;;;;;;13.43;4.20;;;21.00;65.50;;;;;;4917106;28;86814;-85
2022/10/13 12:42:52;;;;;;;11.07;4.10;;;20.70;65.90;;;;;;4903878;28;87447;-85
2022/10/13 12:45:20;;;;;;;9.32;3.85;;;20.50;68.00;;;;;;4904475;28;86197;-85
2022/10/13 12:47:52;;;;;;;11.27;4.57;;;21.00;67.40;;;;;;4895768;28;88002;-85
2022/10/13 12:50:21;;;;;;;10.27;3.58;;;20.90;66.90;;;;;;4902573;28;87805;-85
2022/10/13 12:52:47;;;;;;;12.30;3.45;;;20.80;68.10;;;;;;4909082;28;89625;-85
2022/10/13 12:55:16;;;;;;;9.35;3.38;;;20.30;69.40;;;;;;4904789;28;86636;-86
2022/10/13 12:57:46;;;;;;;8.80;3.70;;;20.20;68.40;;;;;;4889586;28;86230;-85
2022/10/13 13:00:18;;;;;;;9.38;3.63;;;19.90;69.40;;;;;;4903228;28;86675;-85
2022/10/13 13:03:00;;;;;;;7.90;2.78;;;20.10;68.50;;;;;;4890329;28;86267;-85
2022/10/13 13:05:38;;;;;;;10.57;3.75;;;20.20;67.20;;;;;;4899140;28;86799;-85
2022/10/13 13:08:25;;;;;;;7.30;2.95;;;20.00;69.20;;;;;;4900718;28;86215;-85
2022/10/13 13:11:03;;;;;;;10.05;2.97;;;20.10;68.50;;;;;;4901042;28;88764;-84
2022/10/13 13:13:29;;;;;;;12.85;2.65;;;20.40;67.10;;;;;;4899567;28;86797;-85
2022/10/13 13:16:19;;;;;;;6.00;2.72;;;20.40;66.50;;;;;;4901617;28;87622;-84
2022/10/13 13:18:47;;;;;;;8.82;3.58;;;20.20;68.60;;;;;;4901566;28;86315;-84
2022/10/13 13:21:15;;;;;;;10.23;3.78;;;20.10;68.30;;;;;;4900609;28;86903;-84
2022/10/13 13:23:45;;;;;;;9.60;3.90;;;19.90;69.00;;;;;;4903428;28;87088;-85
2022/10/13 13:26:16;;;;;;;8.57;3.97;;;19.90;69.20;;;;;;4912638;28;86157;-85
2022/10/13 13:28:53;;;;;;;11.27;4.13;;;19.70;70.70;;;;;;4903821;28;86866;-85
2022/10/13 13:31:24;;;;;;;11.65;4.10;;;19.80;69.90;;;;;;4895224;28;87169;-85
2022/10/13 13:33:49;;;;;;;12.18;3.90;;;19.70;72.10;;;;;;4901739;28;86790;-85
2022/10/13 13:36:18;;;;;;;11.98;3.50;;;19.80;72.20;;;;;;4898525;28;86614;-84
2022/10/13 13:38:44;;;;;;;8.38;3.92;;;19.90;72.40;;;;;;4904072;28;86275;-84
2022/10/13 13:41:11;;;;;;;13.57;4.25;;;20.10;71.90;;;;;;4903014;28;88053;-84
2022/10/13 13:43:37;;;;;;;12.38;4.38;;;20.10;71.20;;;;;;4896637;28;87025;-83
2022/10/13 13:46:04;;;;;;;10.52;4.20;;;20.00;71.80;;;;;;4893497;28;86521;-84
2022/10/13 13:48:30;;;;;;;14.00;4.97;;;20.20;70.80;;;;;;4903059;28;86822;-84
2022/10/13 13:50:56;;;;;;;9.68;4.22;;;20.10;71.80;;;;;;4899100;28;87678;-84
2022/10/13 13:53:21;;;;;;;13.48;5.28;;;20.10;72.00;;;;;;4902628;28;89003;-84
2022/10/13 13:55:47;;;;;;;13.02;5.30;;;19.90;71.80;;;;;;4904430;28;86567;-83
2022/10/13 13:58:13;;;;;;;12.80;5.68;;;19.90;72.20;;;;;;4903672;28;85692;-84
2022/10/13 14:00:39;;;;;;;11.90;3.90;;;19.90;72.00;;;;;;4903869;28;86396;-84
2022/10/13 14:03:04;;;;;;;10.07;4.15;;;20.20;72.10;;;;;;4902822;28;86958;-84
2022/10/13 14:05:30;;;;;;;9.15;4.35;;;20.40;70.70;;;;;;4899951;28;88045;-85
2022/10/13 14:07:56;;;;;;;9.30;4.85;;;20.60;70.50;;;;;;4902523;28;86333;-84
2022/10/13 14:10:23;;;;;;;11.02;5.10;;;20.50;70.40;;;;;;4898555;28;86542;-84
2022/10/13 14:12:50;;;;;;;13.68;6.10;;;20.10;72.00;;;;;;4901865;28;86344;-84
2022/10/13 14:15:16;;;;;;;13.93;5.07;;;20.10;71.10;;;;;;4903660;28;86923;-84
2022/10/13 14:17:41;;;;;;;13.23;5.93;;;20.20;71.30;;;;;;4903959;28;86675;-84
2022/10/13 14:20:08;;;;;;;13.63;4.85;;;20.00;71.20;;;;;;4903694;28;86831;-84
2022/10/13 14:22:36;;;;;;;13.20;5.20;;;20.00;70.90;;;;;;4902916;28;86199;-84
2022/10/13 14:25:02;;;;;;;10.98;5.55;;;19.90;73.70;;;;;;4899751;28;86895;-84
2022/10/13 14:27:29;;;;;;;11.43;5.78;;;19.60;74.80;;;;;;4902003;28;86379;-83
2022/10/13 14:29:56;;;;;;;12.40;5.57;;;19.50;74.90;;;;;;4889667;28;88420;-85
2022/10/13 14:32:21;;;;;;;12.15;5.80;;;19.40;74.80;;;;;;4899666;28;87878;-84
2022/10/13 14:34:47;;;;;;;14.18;5.57;;;19.20;76.20;;;;;;4906470;28;86929;-84
2022/10/13 14:37:13;;;;;;;13.88;5.32;;;19.20;75.50;;;;;;4897627;28;86295;-84
2022/10/13 14:39:38;;;;;;;13.02;5.03;;;19.40;75.50;;;;;;4906631;28;87105;-84
2022/10/13 14:42:04;;;;;;;12.90;5.93;;;19.50;73.70;;;;;;4906717;28;86685;-84
2022/10/13 14:44:29;;;;;;;13.30;5.20;;;19.50;74.10;;;;;;4899391;28;87117;-83
2022/10/13 14:46:55;;;;;;;11.70;5.70;;;19.50;74.60;;;;;;4896815;28;86153;-84
2022/10/13 14:49:21;;;;;;;11.80;5.07;;;19.30;74.60;;;;;;4901184;28;87869;-84
2022/10/13 14:51:46;;;;;;;14.75;6.40;;;19.20;75.40;;;;;;4906961;28;86577;-84
2022/10/13 14:54:12;;;;;;;14.70;5.82;;;19.20;76.60;;;;;;4905817;28;87767;-84
2022/10/13 14:56:38;;;;;;;13.13;5.70;;;19.10;76.10;;;;;;4898606;28;86548;-84
2022/10/13 14:59:05;;;;;;;15.38;6.22;;;19.10;76.00;;;;;;4896704;28;87638;-83
2022/10/13 15:01:32;;;;;;;12.35;5.90;;;19.00;75.90;;;;;;4906151;28;86681;-85
2022/10/13 15:03:59;;;;;;;16.38;6.15;;;18.80;77.70;;;;;;4900263;28;86285;-84
2022/10/13 15:06:25;;;;;;;14.85;5.88;;;18.80;77.80;;;;;;4890654;28;87498;-84
2022/10/13 15:08:51;;;;;;;15.50;6.70;;;18.80;77.70;;;;;;4893050;28;86840;-84
2022/10/13 15:11:19;;;;;;;12.40;5.68;;;18.80;78.40;;;;;;4899383;28;86170;-84
2022/10/13 15:13:45;;;;;;;16.25;5.68;;;18.90;77.90;;;;;;4902012;28;86866;-84
2022/10/13 15:16:26;;;;;;;13.75;4.88;;;19.00;77.80;;;;;;4904614;28;86858;-84
2022/10/13 15:18:53;;;;;;;10.55;4.95;;;19.00;78.00;;;;;;4893592;28;88450;-83
2022/10/13 15:21:19;;;;;;;12.88;5.57;;;18.90;77.40;;;;;;4892079;28;87400;-85
2022/10/13 15:23:45;;;;;;;13.77;5.50;;;18.90;77.30;;;;;;4904922;28;86945;-84
2022/10/13 15:26:14;;;;;;;21.63;7.07;;;18.80;77.60;;;;;;4899524;28;86760;-84
2022/10/13 15:28:45;;;;;;;16.83;6.07;;;18.80;78.40;;;;;;4899784;28;87304;-84
2022/10/13 15:31:12;;;;;;;15.15;6.35;;;18.70;78.90;;;;;;4896840;28;87273;-84
2022/10/13 15:33:40;;;;;;;16.60;5.97;;;18.50;79.20;;;;;;4904312;28;86744;-85
2022/10/13 15:36:06;;;;;;;16.60;6.45;;;18.40;79.70;;;;;;4905685;28;85914;-84